Time;durP1;ratioP1;P1;durP2;ratioP2;P2;SDS_P1;SDS_P2;PMS_P1;PMS_P2;Temp;Humidity;BMP_temperature;BMP_pressure;BME280_temperature;BME280_humidity;BME280_pressure;Samples;Min_cycle;Max_cycle;Signal;HPM_P1;HPM_P2
2022/10/06 00:00:00;;;;;;;;;7.00;7.00;;;;;;;;35093;1264;13065689;-50
2022/10/06 00:02:30;;;;;;;;;4.00;4.00;;;;;;;;30534;1264;15165582;-49
2022/10/06 00:05:02;;;;;;;;;2.00;2.00;;;;;;;;32607;1265;13063738;-50
2022/10/06 00:07:29;;;;;;;;;6.00;5.00;;;;;;;;31105;1265;16364288;-49
2022/10/06 00:09:56;;;;;;;;;6.00;5.00;;;;;;;;32336;1264;14565679;-48
2022/10/06 00:12:24;;;;;;;;;5.00;5.00;;;;;;;;32370;1265;13064992;-48
2022/10/06 00:14:51;;;;;;;;;5.50;5.00;;;;;;;;34416;1265;12462376;-48
2022/10/06 00:17:18;;;;;;;;;4.33;4.00;;;;;;;;33798;1265;13064545;-49
2022/10/06 00:19:50;;;;;;;;;20.00;4.00;;;;;;;;30510;1265;14115491;-52
2022/10/06 00:22:28;;;;;;;;;2.00;2.00;;;;;;;;32580;1264;15767128;-49
2022/10/06 00:25:01;;;;;;;;;6.00;4.00;;;;;;;;32648;1265;13518204;-50
2022/10/06 00:27:48;;;;;;;;;6.00;4.00;;;;;;;;28700;1265;33770757;-53
2022/10/06 00:30:19;;;;;;;;;4.00;4.00;;;;;;;;28836;1264;19217514;-50
2022/10/06 00:32:53;;;;;;;;;8.00;6.00;;;;;;;;32579;1264;13813362;-50
2022/10/06 00:35:32;;;;;;;;;4.00;4.00;;;;;;;;32519;1265;17417440;-51
2022/10/06 00:38:01;;;;;;;;;4.00;4.00;;;;;;;;32025;1265;13813447;-50
2022/10/06 00:40:31;;;;;;;;;2.00;2.00;;;;;;;;32561;1265;15316496;-51
2022/10/06 00:43:07;;;;;;;;;2.00;2.00;;;;;;;;32613;1265;14865869;-52
2022/10/06 00:45:42;;;;;;;;;10.00;8.00;;;;;;;;32641;1264;13813537;-52
2022/10/06 00:48:10;;;;;;;;;;;;;;;;;;28774;1265;14565666;-50
2022/10/06 00:50:46;;;;;;;;;6.00;6.00;;;;;;;;24799;1265;23270215;-48
2022/10/06 00:53:26;;;;;;;;;6.00;6.00;;;;;;;;32639;1265;15015009;-49
2022/10/06 00:56:01;;;;;;;;;8.00;8.00;;;;;;;;32653;1264;14114317;-48
2022/10/06 00:58:30;;;;;;;;;7.50;6.50;;;;;;;;29290;1264;15766737;-51
2022/10/06 01:00:57;;;;;;;;;5.00;5.00;;;;;;;;30295;1265;18171657;-47
2022/10/06 01:03:38;;;;;;;;;;;;;;;;;;19091;1265;33173931;-49
2022/10/06 01:06:08;;;;;;;;;4.00;4.00;;;;;;;;21146;1265;32874152;-52
2022/10/06 01:08:39;;;;;;;;;4.00;4.00;;;;;;;;21130;1265;30774286;-52
2022/10/06 01:11:13;;;;;;;;;6.00;6.00;;;;;;;;28802;1265;22069944;-51
2022/10/06 01:13:53;;;;;;;;;2.00;2.00;;;;;;;;27846;1265;22826286;-52
2022/10/06 01:16:25;;;;;;;;;6.00;2.00;;;;;;;;24111;1265;24620998;-48
2022/10/06 01:19:13;;;;;;;;;4.00;4.00;;;;;;;;27975;1265;21018535;-48
2022/10/06 01:21:52;;;;;;;;;4.00;4.00;;;;;;;;25000;1265;21469164;-49
2022/10/06 01:24:30;;;;;;;;;4.00;4.00;;;;;;;;24980;1264;23420901;-50
2022/10/06 01:26:58;;;;;;;;;4.00;4.00;;;;;;;;28795;1265;15468952;-51
2022/10/06 01:29:25;;;;;;;;;2.00;2.00;;;;;;;;24937;1265;32272826;-48
2022/10/06 01:31:58;;;;;;;;;6.00;6.00;;;;;;;;26718;1264;22670333;-49
2022/10/06 01:34:28;;;;;;;;;4.00;4.00;;;;;;;;20898;1265;31823799;-51
2022/10/06 01:37:11;;;;;;;;;8.00;2.00;;;;;;;;21148;1265;24320040;-50
2022/10/06 01:39:44;;;;;;;;;2.00;2.00;;;;;;;;32570;1265;13665189;-53
2022/10/06 01:42:12;;;;;;;;;5.00;5.00;;;;;;;;34207;1264;13064048;-49
2022/10/06 01:44:50;;;;;;;;;5.00;3.00;;;;;;;;30947;1264;16067027;-49
2022/10/06 01:47:17;;;;;;;;;5.00;5.00;;;;;;;;34778;1265;12313688;-49
2022/10/06 01:49:44;;;;;;;;;4.50;4.50;;;;;;;;31457;1265;14263968;-48
2022/10/06 01:52:17;;;;;;;;;6.00;4.00;;;;;;;;31632;1265;16966602;-49
2022/10/06 01:54:45;;;;;;;;;4.00;4.00;;;;;;;;32587;1265;13966112;-49
2022/10/06 01:57:12;;;;;;;;;5.00;5.00;;;;;;;;35109;1264;11713882;-48
2022/10/06 01:59:40;;;;;;;;;5.00;5.00;;;;;;;;25647;1265;28069769;-48
2022/10/06 02:02:14;;;;;;;;;4.00;4.00;;;;;;;;30498;1265;18466060;-50
2022/10/06 02:04:41;;;;;;;;;2.00;2.00;;;;;;;;36032;1265;13367056;-48
2022/10/06 02:07:18;;;;;;;;;3.00;3.00;;;;;;;;34342;1265;12917076;-51
2022/10/06 02:09:49;;;;;;;;;4.00;4.00;;;;;;;;32570;1265;13964756;-49
2022/10/06 02:12:26;;;;;;;;;6.00;5.00;;;;;;;;32619;1265;14565233;-49
2022/10/06 02:14:54;;;;;;;;;4.50;4.50;;;;;;;;32584;1265;14565262;-49
2022/10/06 02:17:22;;;;;;;;;6.00;6.00;;;;;;;;32357;1265;13365210;-49
2022/10/06 02:19:54;;;;;;;;;6.00;6.00;;;;;;;;32241;1265;14114945;-49
2022/10/06 02:22:23;;;;;;;;;4.00;4.00;;;;;;;;32608;1264;13964536;-51
2022/10/06 02:24:50;;;;;;;;;4.00;4.00;;;;;;;;32633;1264;13515379;-50
2022/10/06 02:27:21;;;;;;;;;2.00;2.00;;;;;;;;32650;1265;14566646;-48
2022/10/06 02:29:55;;;;;;;;;2.00;2.00;;;;;;;;32589;1265;15316760;-49
2022/10/06 02:32:34;;;;;;;;;4.00;4.00;;;;;;;;32593;1265;14414596;-49
2022/10/06 02:35:12;;;;;;;;;6.00;6.00;;;;;;;;28028;1264;18768311;-50
2022/10/06 02:37:51;;;;;;;;;6.00;6.00;;;;;;;;24273;1265;22819256;-49
2022/10/06 02:40:30;;;;;;;;;4.00;4.00;;;;;;;;21147;1265;24620812;-52
2022/10/06 02:43:08;;;;;;;;;4.00;4.00;;;;;;;;25000;1265;22820915;-52
2022/10/06 02:45:42;;;;;;;;;10.00;6.00;;;;;;;;25044;1264;18317152;-52
2022/10/06 02:48:10;;;;;;;;;0.00;0.00;;;;;;;;24130;1265;18767040;-50
2022/10/06 02:50:39;;;;;;;;;;;;;;;;;;24139;1264;21318261;-51
2022/10/06 02:53:09;;;;;;;;;26.00;24.00;;;;;;;;24961;1265;29874588;-50
2022/10/06 02:55:59;;;;;;;;;;;;;;;;;;21210;1264;68434982;-49
2022/10/06 02:58:36;;;;;;;;;6.00;6.00;;;;;;;;24693;1265;37071408;-48
2022/10/06 03:01:03;;;;;;;;;4.00;4.00;;;;;;;;31127;1265;17268721;-49
2022/10/06 03:03:39;;;;;;;;;2.00;2.00;;;;;;;;26712;1265;21319853;-48
2022/10/06 03:06:21;;;;;;;;;4.00;4.00;;;;;;;;28687;1264;16965193;-50
2022/10/06 03:08:56;;;;;;;;;4.00;4.00;;;;;;;;26692;1265;16817307;-49
2022/10/06 03:11:36;;;;;;;;;8.00;8.00;;;;;;;;28522;1265;20577076;-49
2022/10/06 03:14:03;;;;;;;;;5.00;5.00;;;;;;;;22409;1265;31222653;-48
2022/10/06 03:16:38;;;;;;;;;4.00;4.00;;;;;;;;23629;1265;21320671;-51
2022/10/06 03:19:06;;;;;;;;;;;;;;;;;;25199;1265;19067873;-48
2022/10/06 03:21:33;;;;;;;;;3.00;2.00;;;;;;;;27555;1265;18468711;-48
2022/10/06 03:24:00;;;;;;;;;4.00;4.00;;;;;;;;23000;1265;21167734;-49
2022/10/06 03:26:36;;;;;;;;;4.00;4.00;;;;;;;;24889;1265;33484374;-49
2022/10/06 03:29:18;;;;;;;;;4.00;4.00;;;;;;;;28829;1264;19670710;-50
2022/10/06 03:31:45;;;;;;;;;5.00;3.00;;;;;;;;27460;1265;19069806;-48
2022/10/06 03:34:23;;;;;;;;;6.00;2.00;;;;;;;;22880;1265;26567856;-49
2022/10/06 03:37:10;;;;;;;;;2.00;2.00;;;;;;;;24941;1265;24022063;-51
2022/10/06 03:39:42;;;;;;;;;;;;;;;;;;21223;1264;32422581;-49
2022/10/06 03:42:28;;;;;;;;;2.00;2.00;;;;;;;;17121;1265;31824812;-49
2022/10/06 03:45:06;;;;;;;;;;;;;;;;;;17328;1265;33624001;-49
2022/10/06 03:47:46;;;;;;;;;0.00;0.00;;;;;;;;17314;1265;29583453;-48
2022/10/06 03:50:30;;;;;;;;;2.00;2.00;;;;;;;;21146;1265;32723372;-50
2022/10/06 03:53:14;;;;;;;;;4.00;4.00;;;;;;;;17386;1264;31823634;-48
2022/10/06 03:55:56;;;;;;;;;6.00;6.00;;;;;;;;17384;1265;32874013;-48
2022/10/06 03:58:42;;;;;;;;;4.00;2.00;;;;;;;;17393;1265;30472203;-48
2022/10/06 04:01:16;;;;;;;;;2.00;2.00;;;;;;;;21129;1264;22822019;-48
2022/10/06 04:03:58;;;;;;;;;2.00;2.00;;;;;;;;21132;1265;24469757;-50
2022/10/06 04:06:31;;;;;;;;;2.00;2.00;;;;;;;;21205;1265;24470781;-48
2022/10/06 04:08:58;;;;;;;;;;;;;;;;;;22878;1265;22069076;-48
2022/10/06 04:11:25;;;;;;;;;;;;;;;;;;21508;1264;22066765;-48
2022/10/06 04:13:59;;;;;;;;;2.00;2.00;;;;;;;;19132;1265;21918476;-48
2022/10/06 04:16:31;;;;;;;;;6.00;6.00;;;;;;;;20065;1265;22971082;-49
2022/10/06 04:19:12;;;;;;;;;4.00;4.00;;;;;;;;21179;1265;24319775;-48
2022/10/06 04:21:54;;;;;;;;;6.00;2.00;;;;;;;;21129;1265;23722182;-48
2022/10/06 04:24:29;;;;;;;;;8.00;8.00;;;;;;;;16996;1265;30621785;-50
2022/10/06 04:29:51;;;;;;;;;10.00;10.00;;;;;;;;19062;1265;22817588;-52
2022/10/06 04:32:28;;;;;;;;;;;;;;;;;;21141;1265;22072892;-52
2022/10/06 04:35:05;;;;;;;;;4.00;4.00;;;;;;;;19679;1265;23868281;-51
2022/10/06 04:37:32;;;;;;;;;6.00;6.00;;;;;;;;21164;1265;24325312;-51
2022/10/06 04:40:09;;;;;;;;;2.00;2.00;;;;;;;;21185;1265;23568465;-49
2022/10/06 04:42:55;;;;;;;;;2.00;2.00;;;;;;;;21143;1265;23868967;-48
2022/10/06 04:45:36;;;;;;;;;2.00;2.00;;;;;;;;20772;1265;26570777;-51
2022/10/06 04:48:14;;;;;;;;;2.00;2.00;;;;;;;;21177;1265;23569952;-50
2022/10/06 04:50:42;;;;;;;;;1.00;1.00;;;;;;;;20603;1265;28074316;-47
2022/10/06 04:53:09;;;;;;;;;;;;;;;;;;11902;1265;33181632;-49
2022/10/06 04:55:43;;;;;;;;;4.00;4.00;;;;;;;;13060;1264;34222231;-49
2022/10/06 04:58:12;;;;;;;;;;;;;;;;;;13501;1265;33323544;-49
2022/10/06 05:00:42;;;;;;;;;4.00;4.00;;;;;;;;13532;1265;33173325;-50
2022/10/06 05:03:20;;;;;;;;;2.00;2.00;;;;;;;;17320;1265;31973343;-52
2022/10/06 05:06:06;;;;;;;;;6.00;6.00;;;;;;;;17268;1265;31673742;-51
2022/10/06 05:08:33;;;;;;;;;2.00;2.00;;;;;;;;15775;1265;32571538;-48
2022/10/06 05:11:19;;;;;;;;;3.00;3.00;;;;;;;;19070;1265;26570083;-48
2022/10/06 05:13:59;;;;;;;;;2.00;2.00;;;;;;;;21148;1264;25072112;-49
2022/10/06 05:16:27;;;;;;;;;4.00;4.00;;;;;;;;19575;1265;28668743;-51
2022/10/06 05:19:08;;;;;;;;;4.00;4.00;;;;;;;;19046;1265;28819320;-49
2022/10/06 05:21:47;;;;;;;;;;;;;;;;;;17341;1265;66033871;-49
2022/10/06 05:30:06;;;;;;;;;4.00;4.00;;;;;;;;5870;1264;400192003;-51
2022/10/06 05:43:48;;;;;;;;;4.00;4.00;;;;;;;;2040;1265;817307731;-53
2022/10/06 05:57:37;;;;;;;;;;;;;;;;;;2;819537010;819537010;-50
2022/10/06 06:12:02;;;;;;;;;2.00;2.00;;;;;;;;2075;1265;860200329;-50
2022/10/06 06:24:14;;;;;;;;;6.00;6.00;;;;;;;;2121;1265;726512891;-48
2022/10/06 06:33:27;;;;;;;;;;;;;;;;;;1787;1265;549321879;-52
2022/10/06 06:38:29;;;;;;;;;6.00;6.00;;;;;;;;2136;1265;296192963;-50
2022/10/06 06:42:04;;;;;;;;;16.00;16.00;;;;;;;;2116;1265;209475222;-53
2022/10/06 06:44:31;;;;;;;;;15.00;13.00;;;;;;;;101943;1264;1250708;-47
2022/10/06 06:46:58;;;;;;;;;16.00;15.67;;;;;;;;104076;1264;951049;-47
2022/10/06 06:49:26;;;;;;;;;14.33;13.67;;;;;;;;102250;1265;1245780;-48
2022/10/06 06:51:54;;;;;;;;;16.67;15.67;;;;;;;;101297;1264;1246061;-49
2022/10/06 06:54:21;;;;;;;;;14.00;14.00;;;;;;;;102225;1264;1100541;-48
2022/10/06 06:56:49;;;;;;;;;13.75;12.00;;;;;;;;100001;1264;1973637;-47
2022/10/06 06:59:16;;;;;;;;;13.00;12.00;;;;;;;;99703;1263;1822818;-48
2022/10/06 07:01:44;;;;;;;;;15.50;14.50;;;;;;;;101373;1265;1245104;-48
2022/10/06 07:04:11;;;;;;;;;12.00;11.50;;;;;;;;102324;1264;1398738;-49
2022/10/06 07:06:40;;;;;;;;;13.00;12.00;;;;;;;;101413;1264;1249779;-48
2022/10/06 07:09:07;;;;;;;;;13.67;13.00;;;;;;;;101545;1264;1100763;-49
2022/10/06 07:11:34;;;;;;;;;14.00;14.00;;;;;;;;102332;1264;1101757;-48
2022/10/06 07:14:01;;;;;;;;;13.50;11.75;;;;;;;;102860;1264;1246499;-47
2022/10/06 07:27:29;;;;;;;;;12.00;11.00;;;;;;;;94034;1264;2723677;-49
2022/10/06 07:29:56;;;;;;;;;11.00;11.00;;;;;;;;106460;1264;1556332;-48
2022/10/06 07:32:24;;;;;;;;;16.67;15.00;;;;;;;;110220;1264;20682;-49
2022/10/06 07:34:51;;;;;;;;;14.00;14.00;;;;;;;;110203;1264;22631;-49
2022/10/06 07:37:18;;;;;;;;;19.33;18.33;;;;;;;;110228;1264;22203;-48
2022/10/06 07:39:48;;;;;;;;;10.50;10.50;;;;;;;;110240;1265;18316;-49
2022/10/06 07:42:15;;;;;;;;;18.00;17.67;;;;;;;;110201;1265;22742;-48
2022/10/06 07:44:42;;;;;;;;;13.33;13.00;;;;;;;;110200;1264;18392;-48
2022/10/06 07:47:10;;;;;;;;;21.33;18.00;;;;;;;;110190;1265;19999;-48
2022/10/06 07:49:37;;;;;;;;;23.00;22.33;;;;;;;;110215;1264;19690;-49
2022/10/06 07:52:04;;;;;;;;;;;;;;;;;;110260;1264;22130;-48
2022/10/06 07:54:32;;;;;;;;;;;;;;;;;;110452;1265;9201;-50
2022/10/06 07:57:00;;;;;;;;;;;;;;;;;;110456;1264;12883;-49
2022/10/06 07:59:27;;;;;;;;;;;;;;;;;;110463;1264;12384;-49
2022/10/06 08:01:54;;;;;;;;;;;;;;;;;;110546;1265;13195;-49
2022/10/06 08:04:21;;;;;;;;;;;;;;;;;;110503;1264;12744;-46
2022/10/06 08:06:49;;;;;;;;;17.33;14.67;;;;;;;;110543;1264;10751;-48
2022/10/06 08:09:16;;;;;;;;;17.00;17.00;;;;;;;;110598;1263;13085;-49
2022/10/06 08:11:46;;;;;;;;;15.67;14.67;;;;;;;;110493;1265;13184;-50
2022/10/06 08:14:14;;;;;;;;;15.67;15.00;;;;;;;;110403;1265;13675;-49
2022/10/06 08:16:41;;;;;;;;;18.33;15.00;;;;;;;;110453;1264;13124;-48
2022/10/06 08:19:10;;;;;;;;;16.00;14.50;;;;;;;;110301;1264;13143;-48
2022/10/06 08:21:38;;;;;;;;;;;;;;;;;;110502;1265;9271;-47
2022/10/06 08:24:05;;;;;;;;;;;;;;;;;;110577;1264;13814;-50
2022/10/06 08:26:33;;;;;;;;;;;;;;;;;;110525;1264;13145;-48
2022/10/06 08:29:01;;;;;;;;;;;;;;;;;;110508;1263;12830;-49
2022/10/06 08:31:29;;;;;;;;;13.00;11.00;;;;;;;;110488;1265;13989;-48
2022/10/06 08:33:56;;;;;;;;;13.00;12.33;;;;;;;;110480;1264;14516;-52
2022/10/06 08:36:25;;;;;;;;;11.00;11.00;;;;;;;;110428;1265;13065;-50
2022/10/06 08:38:53;;;;;;;;;14.00;11.00;;;;;;;;110422;1264;14109;-50
2022/10/06 08:41:20;;;;;;;;;12.33;10.33;;;;;;;;110472;1264;13137;-48
2022/10/06 08:43:48;;;;;;;;;13.00;11.00;;;;;;;;110437;1264;13685;-49
2022/10/06 08:46:15;;;;;;;;;11.00;11.00;;;;;;;;110459;1264;13788;-50
2022/10/06 08:48:42;;;;;;;;;10.00;10.00;;;;;;;;110494;1264;13055;-49
2022/10/06 08:51:09;;;;;;;;;10.33;10.00;;;;;;;;110424;1264;14721;-49
2022/10/06 08:53:38;;;;;;;;;10.00;9.67;;;;;;;;110343;1264;15585;-50
2022/10/06 08:56:05;;;;;;;;;9.00;9.00;;;;;;;;110446;1265;15259;-50
2022/10/06 08:58:32;;;;;;;;;11.00;11.00;;;;;;;;110474;1264;15264;-48
2022/10/06 09:01:00;;;;;;;;;11.00;9.00;;;;;;;;110470;1265;14938;-48
2022/10/06 09:03:27;;;;;;;;;11.00;11.00;;;;;;;;110495;1264;13047;-48
2022/10/06 09:05:54;;;;;;;;;11.00;10.33;;;;;;;;110443;1264;18929;-48
2022/10/06 09:08:23;;;;;;;;;13.00;11.00;;;;;;;;110413;1264;13617;-48
2022/10/06 09:10:50;;;;;;;;;9.67;9.67;;;;;;;;110450;1265;17952;-48
2022/10/06 09:13:17;;;;;;;;;9.00;9.00;;;;;;;;110469;1265;14781;-49
2022/10/06 09:15:45;;;;;;;;;11.00;10.00;;;;;;;;110502;1265;16044;-49
2022/10/06 09:18:13;;;;;;;;;14.00;10.00;;;;;;;;110458;1264;14862;-49
2022/10/06 09:20:41;;;;;;;;;10.00;10.00;;;;;;;;110384;1264;13626;-53
2022/10/06 09:23:08;;;;;;;;;10.00;10.00;;;;;;;;110364;1264;14658;-49
2022/10/06 09:25:36;;;;;;;;;10.00;10.00;;;;;;;;110389;1265;13795;-49
2022/10/06 09:28:04;;;;;;;;;10.00;10.00;;;;;;;;110390;1265;14890;-49
2022/10/06 09:30:31;;;;;;;;;11.00;10.00;;;;;;;;110475;1264;13243;-49
2022/10/06 09:32:59;;;;;;;;;10.67;10.67;;;;;;;;110358;1265;14308;-49
2022/10/06 09:35:26;;;;;;;;;9.33;9.33;;;;;;;;110600;1262;13799;-50
2022/10/06 09:37:53;;;;;;;;;8.33;8.33;;;;;;;;110542;1262;13143;-49
2022/10/06 09:40:20;;;;;;;;;9.00;9.00;;;;;;;;110419;1262;14587;-50
2022/10/06 09:42:48;;;;;;;;;9.00;9.00;;;;;;;;110586;1262;13201;-48
2022/10/06 09:45:15;;;;;;;;;9.00;8.67;;;;;;;;110404;1262;14015;-50
2022/10/06 09:47:44;;;;;;;;;9.33;9.00;;;;;;;;110332;1261;12497;-49
2022/10/06 09:50:13;;;;;;;;;10.33;9.00;;;;;;;;110508;1262;16617;-48
2022/10/06 09:52:40;;;;;;;;;13.00;9.00;;;;;;;;110448;1261;100628;-50
2022/10/06 09:55:08;;;;;;;;;13.00;11.00;;;;;;;;110517;1262;14601;-48
2022/10/06 09:57:36;;;;;;;;;10.00;9.67;;;;;;;;110587;1262;13082;-49
2022/10/06 10:00:03;;;;;;;;;9.00;9.00;;;;;;;;110538;1262;13814;-49
2022/10/06 10:02:35;;;;;;;;;9.00;8.33;;;;;;;;110510;1262;13058;-49
2022/10/06 10:05:02;;;;;;;;;9.00;7.00;;;;;;;;110381;1261;13072;-49
2022/10/06 10:07:30;;;;;;;;;7.67;7.67;;;;;;;;110350;1262;13947;-47
2022/10/06 10:09:57;;;;;;;;;10.00;10.00;;;;;;;;110326;1261;14241;-49
2022/10/06 10:12:26;;;;;;;;;7.00;6.00;;;;;;;;110511;1262;12953;-48
2022/10/06 10:14:53;;;;;;;;;8.67;8.67;;;;;;;;110438;1262;16696;-49
2022/10/06 10:17:20;;;;;;;;;7.00;7.00;;;;;;;;110323;1262;13176;-48
2022/10/06 10:19:51;;;;;;;;;9.00;9.00;;;;;;;;110407;1262;15424;-48
2022/10/06 10:22:22;;;;;;;;;9.00;7.00;;;;;;;;110476;1262;15307;-48
2022/10/06 10:24:49;;;;;;;;;6.00;6.00;;;;;;;;110578;1261;13504;-49
2022/10/06 10:27:16;;;;;;;;;7.67;7.67;;;;;;;;110425;1262;14421;-49
2022/10/06 10:29:44;;;;;;;;;6.00;6.00;;;;;;;;110493;1262;14650;-49
2022/10/06 10:32:11;;;;;;;;;10.00;10.00;;;;;;;;110305;1263;12986;-48
2022/10/06 10:34:39;;;;;;;;;7.00;7.00;;;;;;;;110431;1262;14967;-48
2022/10/06 10:37:06;;;;;;;;;7.00;7.00;;;;;;;;110364;1262;14481;-49
2022/10/06 10:39:33;;;;;;;;;7.00;7.00;;;;;;;;110518;1262;12822;-48
2022/10/06 10:42:01;;;;;;;;;8.00;7.67;;;;;;;;110521;1262;15222;-48
2022/10/06 10:44:29;;;;;;;;;11.33;9.00;;;;;;;;110527;1262;18198;-48
2022/10/06 10:46:56;;;;;;;;;9.00;9.00;;;;;;;;110549;1261;14899;-49
2022/10/06 10:49:23;;;;;;;;;9.33;9.33;;;;;;;;110397;1262;17896;-49
2022/10/06 10:51:50;;;;;;;;;9.67;9.00;;;;;;;;110524;1262;13177;-49
2022/10/06 10:54:18;;;;;;;;;13.00;9.67;;;;;;;;110491;1261;14429;-49
2022/10/06 10:56:47;;;;;;;;;7.67;7.67;;;;;;;;110489;1262;14242;-48
2022/10/06 10:59:15;;;;;;;;;7.00;6.67;;;;;;;;110531;1262;12583;-48
2022/10/06 11:01:42;;;;;;;;;7.00;7.00;;;;;;;;110527;1262;14402;-48
2022/10/06 11:04:10;;;;;;;;;7.00;7.00;;;;;;;;110502;1262;13526;-48
2022/10/06 11:06:37;;;;;;;;;8.33;6.67;;;;;;;;110581;1262;12654;-49
2022/10/06 11:09:04;;;;;;;;;9.00;7.00;;;;;;;;110418;1262;14538;-48
2022/10/06 11:11:31;;;;;;;;;6.00;6.00;;;;;;;;110511;1262;14213;-50
2022/10/06 11:13:59;;;;;;;;;6.50;6.00;;;;;;;;110442;1261;14552;-48
2022/10/06 11:16:26;;;;;;;;;9.00;7.33;;;;;;;;110517;1262;14191;-49
2022/10/06 11:18:53;;;;;;;;;11.33;9.33;;;;;;;;110604;1262;13193;-48
2022/10/06 11:21:20;;;;;;;;;9.67;9.00;;;;;;;;110480;1262;14611;-49
2022/10/06 11:23:48;;;;;;;;;7.67;6.00;;;;;;;;110471;1261;15128;-48
2022/10/06 11:26:15;;;;;;;;;7.67;6.67;;;;;;;;110484;1262;13134;-48
2022/10/06 11:28:43;;;;;;;;;6.67;6.00;;;;;;;;110385;1262;14311;-49
2022/10/06 11:31:10;;;;;;;;;5.00;5.00;;;;;;;;110482;1262;14301;-48
2022/10/06 11:33:38;;;;;;;;;5.00;5.00;;;;;;;;110538;1262;13159;-50
2022/10/06 11:36:05;;;;;;;;;3.00;3.00;;;;;;;;110456;1263;14517;-50
2022/10/06 11:38:32;;;;;;;;;5.00;5.00;;;;;;;;110410;1262;13110;-49
2022/10/06 11:40:59;;;;;;;;;4.00;3.00;;;;;;;;110470;1261;13419;-48
2022/10/06 11:43:27;;;;;;;;;4.33;4.33;;;;;;;;110502;1262;13288;-49
2022/10/06 11:45:54;;;;;;;;;6.00;5.00;;;;;;;;110522;1262;12636;-48
2022/10/06 11:48:21;;;;;;;;;5.00;5.00;;;;;;;;110443;1262;13741;-48
2022/10/06 11:50:51;;;;;;;;;3.00;3.00;;;;;;;;110483;1262;14316;-52
2022/10/06 11:53:19;;;;;;;;;5.67;5.00;;;;;;;;110529;1262;13350;-48
2022/10/06 11:55:46;;;;;;;;;6.00;5.00;;;;;;;;110556;1261;13446;-49
2022/10/06 11:58:13;;;;;;;;;6.00;5.00;;;;;;;;110534;1262;13474;-50
2022/10/06 12:00:41;;;;;;;;;5.00;3.00;;;;;;;;110480;1262;11947;-50
2022/10/06 12:03:08;;;;;;;;;4.50;4.50;;;;;;;;110517;1262;13197;-48
2022/10/06 12:05:35;;;;;;;;;6.33;6.00;;;;;;;;110457;1262;13708;-48
2022/10/06 12:08:02;;;;;;;;;3.33;3.33;;;;;;;;110387;1261;12606;-48
2022/10/06 12:10:31;;;;;;;;;5.00;3.00;;;;;;;;110454;1262;13872;-49
2022/10/06 12:12:59;;;;;;;;;3.00;3.00;;;;;;;;110536;1262;13253;-53
2022/10/06 12:15:27;;;;;;;;;4.67;3.33;;;;;;;;110524;1262;13153;-48
2022/10/06 12:17:54;;;;;;;;;3.00;3.00;;;;;;;;110474;1262;13262;-48
2022/10/06 12:20:21;;;;;;;;;3.00;3.00;;;;;;;;110518;1262;16552;-48
2022/10/06 12:22:48;;;;;;;;;3.00;3.00;;;;;;;;110422;1262;13145;-48
2022/10/06 12:26:35;;;;;;;;;;;;;;;;;;107497;1301;11667;-53
2022/10/06 12:29:03;;;;;;;;;;;;;;;;;;108877;1278;15491;-54
2022/10/06 12:31:31;;;;;;;;;;;;;;;;;;108853;1277;14739;-52
2022/10/06 12:33:58;;;;;;;;;;;;;;;;;;108877;1278;8954;-53
2022/10/06 12:36:25;;;;;;;;;;;;;;;;;;108869;1278;12306;-53
2022/10/06 12:38:52;;;;;;;;;;;;;;;;;;108817;1276;14931;-55
2022/10/06 12:41:20;;;;;;;;;;;;;;;;;;109096;1274;86375;-53
2022/10/06 12:43:47;;;;;;;;;;;;;;;;;;109224;1274;14859;-56
2022/10/06 12:46:15;;;;;;;;;;;;;;;;;;109252;1274;14275;-53
2022/10/06 12:48:42;;;;;;;;;;;;;;;;;;109252;1274;8956;-54
2022/10/06 12:51:09;;;;;;;;;;;;;;;;;;110417;1265;14832;-54
2022/10/06 12:53:36;;;;;;;;;;;;;;;;;;110379;1264;14633;-54
2022/10/06 12:56:04;;;;;;;;;;;;;;;;;;110427;1264;14833;-58
2022/10/06 12:58:31;;;;;;;;;;;;;;;;;;110421;1265;14925;-54
2022/10/06 13:00:58;;;;;;;;;;;;;;;;;;110528;1265;10645;-52
2022/10/06 13:03:25;;;;;;;;;;;;;;;;;;110441;1264;11452;-52
2022/10/06 13:05:53;;;;;;;;;;;;;;;;;;110490;1264;11646;-53
2022/10/06 13:08:20;;;;;;;;;;;;;;;;;;110502;1264;13464;-50
2022/10/06 13:10:47;;;;;;;;;;;;;;;;;;110486;1264;13836;-56
2022/10/06 13:13:14;;;;;;;;;;;;;;;;;;110511;1264;12662;-52
2022/10/06 13:15:42;;;;;;;;;;;;;;;;;;110464;1264;9159;-52
2022/10/06 13:18:09;;;;;;;;;;;;;;;;;;110475;1265;13994;-54
2022/10/06 13:20:36;;;;;;;;;;;;;;;;;;110483;1264;13994;-51
2022/10/06 13:23:03;;;;;;;;;;;;;;;;;;110494;1264;13329;-52
2022/10/06 13:25:31;;;;;;;;;;;;;;;;;;110392;1265;13872;-53
2022/10/06 13:28:01;;;;;;;;;;;;;;;;;;110481;1264;9201;-51
2022/10/06 13:30:28;;;;;;;;;3.00;3.00;;;;;;;;110468;1264;11382;-51
2022/10/06 13:32:55;;;;;;;;;3.00;3.00;;;;;;;;110368;1264;13142;-54
2022/10/06 13:35:22;;;;;;;;;5.00;5.00;;;;;;;;110397;1265;13738;-54
2022/10/06 13:37:50;;;;;;;;;5.00;5.00;;;;;;;;110360;1265;13648;-52
2022/10/06 13:40:17;;;;;;;;;5.00;5.00;;;;;;;;110360;1265;13070;-58
2022/10/06 13:42:44;;;;;;;;;3.67;3.00;;;;;;;;110377;1265;15089;-51
2022/10/06 13:45:13;;;;;;;;;5.67;4.33;;;;;;;;110415;1264;13277;-54
2022/10/06 13:47:40;;;;;;;;;6.00;6.00;;;;;;;;110440;1264;13143;-52
2022/10/06 13:50:08;;;;;;;;;5.67;5.00;;;;;;;;110375;1264;12985;-51
2022/10/06 13:52:36;;;;;;;;;6.00;5.67;;;;;;;;110325;1265;13164;-56
2022/10/06 13:55:03;;;;;;;;;6.00;5.67;;;;;;;;110316;1265;13431;-54
2022/10/06 13:57:30;;;;;;;;;7.00;7.00;;;;;;;;110435;1265;13183;-55
2022/10/06 13:59:58;;;;;;;;;7.00;7.00;;;;;;;;110364;1265;13516;-53
2022/10/06 14:02:25;;;;;;;;;9.00;9.00;;;;;;;;110341;1264;13027;-52
2022/10/06 14:04:52;;;;;;;;;9.33;9.00;;;;;;;;110392;1265;13006;-54
2022/10/06 14:07:19;;;;;;;;;9.33;9.00;;;;;;;;110292;1264;16254;-52
2022/10/06 14:09:47;;;;;;;;;9.67;9.67;;;;;;;;110248;1267;12793;-52
2022/10/06 14:12:14;;;;;;;;;10.67;10.00;;;;;;;;110391;1265;13530;-51
2022/10/06 14:14:41;;;;;;;;;5.67;5.67;;;;;;;;110370;1265;13719;-51
2022/10/06 14:17:09;;;;;;;;;6.67;6.67;;;;;;;;110407;1265;16751;-52
2022/10/06 14:19:36;;;;;;;;;4.33;4.33;;;;;;;;110401;1265;13083;-53
2022/10/06 14:22:03;;;;;;;;;5.00;5.00;;;;;;;;110350;1264;13583;-60
2022/10/06 14:24:35;;;;;;;;;4.33;4.33;;;;;;;;110400;1265;13190;-56
2022/10/06 14:27:03;;;;;;;;;5.33;4.33;;;;;;;;110370;1264;14628;-53
2022/10/06 14:29:32;;;;;;;;;3.00;3.00;;;;;;;;110325;1265;17784;-52
2022/10/06 14:32:00;;;;;;;;;3.50;3.50;;;;;;;;110371;1265;13111;-51
2022/10/06 14:34:28;;;;;;;;;3.00;3.00;;;;;;;;110339;1264;13310;-54
2022/10/06 14:39:48;;;;;;;;;3.00;3.00;;;;;22.83;58.33;101920.49;102699;1324;17341;-46
2022/10/06 14:42:16;;;;;;;;;2.50;2.00;;;;;22.46;56.93;101921.36;104841;1294;20124;-50
2022/10/06 14:44:43;;;;;;;;;2.00;2.00;;;;;22.28;57.15;101925.25;104861;1301;19855;-48
2022/10/06 14:47:11;;;;;;;;;5.00;2.50;;;;;22.21;56.97;101924.31;105309;1283;21484;-48
2022/10/06 14:49:38;;;;;;;;;2.00;2.00;;;;;22.20;56.97;101928.30;105410;1278;20169;-47
2022/10/06 14:52:07;;;;;;;;;3.00;2.50;;;;;22.19;57.21;101927.96;105380;1286;19771;-49
2022/10/06 14:54:35;;;;;;;;;2.00;2.00;;;;;22.19;57.15;101929.46;105558;1298;18165;-47
2022/10/06 14:57:03;;;;;;;;;2.00;2.00;;;;;22.19;57.15;101931.12;105587;1283;18377;-47
2022/10/06 14:59:31;;;;;;;;;3.00;3.00;;;;;22.17;57.15;101930.91;105647;1282;19944;-48
2022/10/06 15:01:58;;;;;;;;;2.00;2.00;;;;;22.20;57.15;101928.98;105652;1297;18095;-47
2022/10/06 15:04:26;;;;;;;;;2.00;2.00;;;;;22.24;57.07;101935.65;105646;1283;18440;-47
2022/10/06 15:09:39;;;;;;;;;2.00;2.00;;;;;22.20;57.13;101948.10;105696;1283;17967;-46
2022/10/06 15:12:06;;;;;;;;;3.00;2.00;;;;;22.19;57.16;101948.22;105612;1275;21600;-51
2022/10/06 15:14:38;;;;;;;;;2.00;2.00;;;;;22.15;57.34;101950.27;105664;1283;19878;-47
2022/10/06 15:17:05;;;;;;;;;1.00;1.00;;;;;22.13;57.29;101948.84;105642;1282;18211;-47
2022/10/06 15:19:33;;;;;;;;;5.00;2.00;;;;;22.12;57.33;101955.27;105629;1282;20075;-48
2022/10/06 15:22:02;;;;;;;;;2.00;2.00;;;;;22.14;57.28;101960.91;105586;1294;19607;-46
2022/10/06 15:24:29;;;;;;;;;2.00;2.00;;;;;22.12;57.45;101964.15;105631;1276;21903;-48
2022/10/06 15:29:42;;;;;;;;;2.50;2.50;;;;;22.13;57.36;101971.36;105625;1289;20953;-49
2022/10/06 15:32:09;;;;;;;;;1.00;1.00;;;;;22.12;57.41;101974.35;105606;1275;17734;-47
2022/10/06 15:34:37;;;;;;;;;2.00;2.00;;;;;22.11;57.27;101975.91;105648;1298;19945;-47
2022/10/06 15:37:04;;;;;;;;;2.00;2.00;;;;;22.12;57.39;101980.20;105524;1297;18096;-52
2022/10/06 15:39:31;;;;;;;;;1.00;1.00;;;;;22.14;57.12;101982.05;105633;1279;19478;-51
2022/10/06 15:41:59;;;;;;;;;2.00;2.00;;;;;22.16;57.31;101983.86;105614;1282;33724;-48
2022/10/06 15:44:26;;;;;;;;;2.00;2.00;;;;;22.17;57.10;101988.14;105622;1298;19562;-52
2022/10/06 15:46:54;;;;;;;;;2.00;2.00;;;;;22.15;57.04;101990.28;105610;1276;19629;-47
2022/10/06 15:49:21;;;;;;;;;;;;;;;22.14;57.08;101994.55;105501;1282;18925;-48